createdAt,value
2023-05-11T00:00:33.576Z,71.02
2023-05-11T00:03:00.028Z,70.57
2023-05-11T00:05:26.565Z,70.72
2023-05-11T00:07:52.896Z,70.59
2023-05-11T00:10:19.549Z,70.81
2023-05-11T00:12:46.053Z,70.68
2023-05-11T00:15:12.401Z,70.44
2023-05-11T00:17:38.754Z,70.46
2023-05-11T00:20:06.165Z,70.48
2023-05-11T00:22:32.491Z,70.44
2023-05-11T00:24:58.804Z,70.28
2023-05-11T00:27:25.500Z,70.49
2023-05-11T00:29:51.998Z,70.71
2023-05-11T00:32:18.338Z,70.79
2023-05-11T00:34:44.706Z,70.87
2023-05-11T00:37:16.252Z,70.80
2023-05-11T00:39:42.686Z,71.02
2023-05-11T00:42:10.705Z,70.80
2023-05-11T00:44:37.115Z,70.87
2023-05-11T00:47:03.831Z,71.07
2023-05-11T00:49:31.085Z,71.37
2023-05-11T00:51:57.800Z,71.53
2023-05-11T00:54:24.668Z,72.07
2023-05-11T00:56:51.662Z,72.04
2023-05-11T00:59:18.564Z,72.25
2023-05-11T01:01:45.024Z,71.80
2023-05-11T01:04:12.667Z,71.33
2023-05-11T01:06:51.532Z,70.72
2023-05-11T01:09:27.404Z,70.52
2023-05-11T01:12:00.453Z,71.00
2023-05-11T01:14:38.688Z,70.84
2023-05-11T01:17:20.529Z,70.91
2023-05-11T01:19:51.463Z,70.85
2023-05-11T01:22:37.864Z,71.00
2023-05-11T01:25:29.903Z,70.85
2023-05-11T01:28:23.068Z,71.16
2023-05-11T01:31:01.704Z,70.99
2023-05-11T01:33:33.612Z,71.22
2023-05-11T01:36:05.590Z,71.42
2023-05-11T01:38:35.706Z,71.42
2023-05-11T01:41:09.788Z,71.31
2023-05-11T01:43:37.471Z,71.40
2023-05-11T01:46:09.158Z,71.09
2023-05-11T01:48:40.542Z,71.26
2023-05-11T01:51:08.858Z,71.49
2023-05-11T01:53:37.667Z,71.14
2023-05-11T01:56:06.227Z,71.39
2023-05-11T01:58:35.943Z,71.42
2023-05-11T02:01:04.059Z,71.24
2023-05-11T02:03:36.738Z,71.53
2023-05-11T02:06:05.739Z,71.40
2023-05-11T02:08:33.795Z,71.63
2023-05-11T02:11:02.498Z,71.44
2023-05-11T02:13:30.348Z,71.49
2023-05-11T02:15:58.557Z,71.53
2023-05-11T02:18:25.151Z,71.57
2023-05-11T02:21:00.056Z,71.80
2023-05-11T02:23:27.742Z,71.60
2023-05-11T02:25:55.164Z,71.61
2023-05-11T02:28:21.664Z,71.55
2023-05-11T02:30:53.105Z,72.22
2023-05-11T02:33:26.292Z,72.12
2023-05-11T02:35:55.554Z,72.34
2023-05-11T02:38:30.834Z,72.26
2023-05-11T02:41:00.490Z,72.47
2023-05-11T02:43:33.578Z,72.50
2023-05-11T02:46:06.878Z,72.72
2023-05-11T02:48:41.157Z,72.69
2023-05-11T02:51:11.057Z,72.29
2023-05-11T02:53:45.329Z,72.75
2023-05-11T02:56:13.154Z,72.51
2023-05-11T02:58:39.562Z,72.92
2023-05-11T03:01:17.153Z,72.93
2023-05-11T03:03:43.809Z,72.92
2023-05-11T03:06:10.220Z,72.74
2023-05-11T03:08:37.438Z,72.66
2023-05-11T03:11:04.924Z,72.66
2023-05-11T03:13:32.457Z,72.35
2023-05-11T03:16:02.378Z,72.62
2023-05-11T03:18:32.189Z,72.57
2023-05-11T03:21:01.360Z,72.48
2023-05-11T03:23:29.250Z,72.29
2023-05-11T03:25:57.337Z,72.55
2023-05-11T03:28:26.658Z,72.05
2023-05-11T03:31:00.429Z,72.07
2023-05-11T03:33:26.854Z,72.58
2023-05-11T03:35:54.197Z,72.50
2023-05-11T03:38:24.371Z,72.68
2023-05-11T03:40:53.469Z,72.29
2023-05-11T03:43:21.718Z,72.04
2023-05-11T03:45:53.887Z,72.34
2023-05-11T03:48:23.713Z,72.34
2023-05-11T03:50:51.776Z,71.90
2023-05-11T03:53:19.048Z,72.35
2023-05-11T03:55:45.471Z,72.32
2023-05-11T03:58:11.915Z,72.26
2023-05-11T04:00:39.974Z,72.37
2023-05-11T04:03:07.787Z,72.91
2023-05-11T04:05:34.404Z,72.76
2023-05-11T04:08:04.631Z,72.63
2023-05-11T04:10:30.966Z,72.79
2023-05-11T04:12:57.489Z,72.61
2023-05-11T04:15:23.932Z,72.85
2023-05-11T04:17:50.331Z,72.92
2023-05-11T04:20:17.039Z,73.08
2023-05-11T04:22:44.214Z,73.21
2023-05-11T04:25:10.719Z,73.11
2023-05-11T04:27:37.098Z,73.38
2023-05-11T04:30:04.212Z,73.25
2023-05-11T04:32:31.465Z,73.29
2023-05-11T04:34:57.985Z,72.77
2023-05-11T04:37:26.421Z,72.34
2023-05-11T04:39:53.126Z,72.60
2023-05-11T04:42:20.697Z,72.50
2023-05-11T04:44:54.259Z,72.44
2023-05-11T04:47:21.191Z,72.25
2023-05-11T04:49:48.332Z,72.24
2023-05-11T04:52:15.311Z,72.31
2023-05-11T04:54:44.633Z,71.75
2023-05-11T04:57:11.008Z,71.61
2023-05-11T04:59:37.495Z,71.79
2023-05-11T05:02:04.117Z,71.60
2023-05-11T05:04:30.855Z,71.37
2023-05-11T05:06:57.241Z,71.72
2023-05-11T05:09:23.579Z,71.43
2023-05-11T05:11:50.094Z,71.75
2023-05-11T05:14:16.450Z,71.68
2023-05-11T05:16:43.034Z,71.29
2023-05-11T05:19:12.798Z,71.75
2023-05-11T05:21:40.535Z,71.53
2023-05-11T05:24:10.932Z,71.72
2023-05-11T05:26:37.582Z,71.56
2023-05-11T05:29:05.358Z,71.72
2023-05-11T05:31:31.782Z,71.60
2023-05-11T05:33:58.423Z,71.20
2023-05-11T05:36:24.835Z,71.56
2023-05-11T05:38:51.745Z,71.47
2023-05-11T05:41:18.682Z,71.72
2023-05-11T05:43:45.486Z,71.29
2023-05-11T05:46:12.499Z,71.35
2023-05-11T05:48:38.908Z,71.57
2023-05-11T05:51:05.372Z,70.91
2023-05-11T05:53:31.769Z,71.27
2023-05-11T05:55:58.186Z,70.96
2023-05-11T05:58:24.597Z,71.49
2023-05-11T06:00:51.050Z,70.83
2023-05-11T06:03:17.519Z,70.68
2023-05-11T06:05:44.167Z,70.34
2023-05-11T06:08:11.637Z,70.48
2023-05-11T06:10:39.269Z,70.20
2023-05-11T06:13:08.054Z,70.18
2023-05-11T06:15:35.215Z,70.15
2023-05-11T06:18:08.611Z,70.33
2023-05-11T06:20:35.542Z,69.69
2023-05-11T06:23:03.871Z,69.53
2023-05-11T06:25:30.457Z,69.52
2023-05-11T06:27:56.995Z,69.41
2023-05-11T06:30:23.397Z,68.64
2023-05-11T06:32:52.361Z,68.48
2023-05-11T06:35:20.715Z,68.43
2023-05-11T06:37:47.101Z,68.84
2023-05-11T06:40:16.329Z,68.41
2023-05-11T06:42:43.147Z,68.33
2023-05-11T06:45:11.099Z,68.08
2023-05-11T06:47:41.556Z,67.31
2023-05-11T06:50:08.604Z,68.15
2023-05-11T06:52:37.370Z,67.69
2023-05-11T06:55:04.445Z,67.99
2023-05-11T06:57:30.778Z,67.42
2023-05-11T06:59:57.526Z,67.35
2023-05-11T07:02:24.193Z,67.87
2023-05-11T07:04:50.836Z,68.39
2023-05-11T07:07:17.277Z,67.66
2023-05-11T07:09:43.674Z,66.91
2023-05-11T07:12:10.126Z,67.33
2023-05-11T07:14:36.573Z,66.62
2023-05-11T07:17:03.654Z,65.70
2023-05-11T07:19:30.066Z,65.92
2023-05-11T07:21:56.424Z,65.33
2023-05-11T07:24:22.834Z,65.74
2023-05-11T07:26:50.655Z,65.76
2023-05-11T07:29:17.017Z,65.13
2023-05-11T07:31:43.962Z,64.86
2023-05-11T07:34:10.343Z,64.51
2023-05-11T07:36:36.761Z,64.19
2023-05-11T07:39:03.234Z,64.05
2023-05-11T07:41:29.654Z,64.33
2023-05-11T07:43:56.182Z,63.37
2023-05-11T07:46:22.650Z,62.85
2023-05-11T07:48:51.675Z,62.92
2023-05-11T07:51:24.094Z,62.89
2023-05-11T07:53:50.490Z,62.07
2023-05-11T07:56:17.132Z,61.81
2023-05-11T07:58:43.592Z,62.89
2023-05-11T08:01:09.974Z,62.08
2023-05-11T08:03:36.965Z,61.73
2023-05-11T08:06:03.795Z,61.22
2023-05-11T08:08:30.565Z,61.60
2023-05-11T08:10:56.920Z,62.53
2023-05-11T08:13:23.288Z,61.89
2023-05-11T08:15:49.736Z,61.63
2023-05-11T08:18:16.384Z,62.33
2023-05-11T08:20:42.729Z,61.99
2023-05-11T08:23:10.694Z,61.60
2023-05-11T08:25:37.035Z,62.05
2023-05-11T08:28:03.499Z,60.65
2023-05-11T08:30:29.930Z,59.73
2023-05-11T08:32:59.076Z,59.84
2023-05-11T08:35:25.987Z,59.93
2023-05-11T08:37:52.340Z,60.06
2023-05-11T08:40:21.499Z,60.56
2023-05-11T08:42:49.849Z,61.03
2023-05-11T08:45:17.731Z,60.89
2023-05-11T08:47:45.311Z,60.66
2023-05-11T08:50:11.988Z,60.70
2023-05-11T08:52:38.448Z,60.70
2023-05-11T08:55:05.258Z,60.93
2023-05-11T08:57:34.089Z,60.33
2023-05-11T09:00:02.309Z,59.94
2023-05-11T09:02:29.311Z,60.98
2023-05-11T09:04:56.007Z,60.55
2023-05-11T09:07:24.383Z,60.61
2023-05-11T09:09:50.717Z,61.10
2023-05-11T09:12:17.134Z,60.44
2023-05-11T09:14:43.693Z,59.75
2023-05-11T09:17:10.137Z,60.74
2023-05-11T09:19:36.626Z,60.89
2023-05-11T09:22:05.265Z,62.25
2023-05-11T09:24:32.264Z,61.40
2023-05-11T09:27:07.277Z,61.68
2023-05-11T09:29:33.613Z,60.94
2023-05-11T09:31:59.979Z,62.82
2023-05-11T09:34:26.622Z,62.25
2023-05-11T09:36:55.064Z,61.98
2023-05-11T09:42:15.324Z,61.42
2023-05-11T09:44:43.274Z,62.60
2023-05-11T09:47:19.186Z,61.14
2023-05-11T09:49:47.523Z,61.84
2023-05-11T09:52:18.499Z,60.18
2023-05-11T09:54:50.820Z,60.63
2023-05-11T09:57:30.576Z,60.67
2023-05-11T09:59:59.207Z,61.27
2023-05-11T10:02:27.459Z,60.30
2023-05-11T10:04:55.803Z,60.92
2023-05-11T10:07:26.367Z,59.52
2023-05-11T10:10:01.637Z,59.20
2023-05-11T10:12:28.895Z,59.92
2023-05-11T10:15:08.097Z,59.04
2023-05-11T10:17:35.619Z,59.24
2023-05-11T10:20:04.102Z,60.42
2023-05-11T10:22:31.268Z,57.72
2023-05-11T10:24:58.595Z,58.54
2023-05-11T10:27:25.982Z,57.68
2023-05-11T10:29:52.588Z,59.20
2023-05-11T10:32:20.245Z,59.13
2023-05-11T10:34:47.985Z,58.00
2023-05-11T10:37:15.569Z,57.25
2023-05-11T10:39:43.992Z,57.83
2023-05-11T10:42:37.147Z,57.27
2023-05-11T10:45:21.923Z,57.74
2023-05-11T10:48:06.058Z,57.64
2023-05-11T10:50:52.067Z,57.90
2023-05-11T10:53:48.942Z,59.17
2023-05-11T10:56:37.064Z,58.93
2023-05-11T10:59:43.113Z,57.48
2023-05-11T11:02:10.157Z,58.18
2023-05-11T11:04:51.479Z,57.92
2023-05-11T11:07:19.418Z,57.86
2023-05-11T11:09:56.407Z,56.51
2023-05-11T11:12:29.860Z,58.36
2023-05-11T11:15:06.063Z,58.19
2023-05-11T11:17:34.999Z,59.78
2023-05-11T11:20:03.931Z,60.00
2023-05-11T11:22:38.136Z,60.21
2023-05-11T11:25:09.052Z,59.95
2023-05-11T11:27:41.286Z,60.30
2023-05-11T11:30:15.600Z,59.66
2023-05-11T11:32:42.976Z,60.77
2023-05-11T11:35:42.337Z,60.61
2023-05-11T11:38:14.996Z,60.10
2023-05-11T11:40:53.037Z,60.27
2023-05-11T11:43:24.972Z,61.16
2023-05-11T11:45:51.302Z,60.32
2023-05-11T11:48:30.905Z,60.80
2023-05-11T11:51:02.595Z,60.43
2023-05-11T11:53:38.213Z,62.96
2023-05-11T11:56:07.279Z,63.36
2023-05-11T11:58:46.139Z,63.65
2023-05-11T12:01:15.284Z,63.13
2023-05-11T12:03:44.872Z,63.88
2023-05-11T12:06:12.010Z,64.03
2023-05-11T12:08:40.434Z,64.49
2023-05-11T12:11:07.689Z,64.60
2023-05-11T12:13:35.651Z,63.94
2023-05-11T12:16:09.308Z,63.71
2023-05-11T12:18:36.388Z,64.14
2023-05-11T12:21:02.958Z,63.49
2023-05-11T12:23:29.824Z,63.23
2023-05-11T12:26:06.264Z,63.12
2023-05-11T12:28:33.550Z,62.06
2023-05-11T12:31:00.775Z,60.98
2023-05-11T12:33:27.715Z,61.43
2023-05-11T12:35:56.468Z,61.20
2023-05-11T12:38:22.870Z,61.94
2023-05-11T12:40:51.364Z,61.50
2023-05-11T12:43:21.478Z,59.67
2023-05-11T12:45:48.593Z,60.77
2023-05-11T12:48:15.872Z,60.10
2023-05-11T12:50:44.352Z,60.32
2023-05-11T12:53:19.035Z,60.00
2023-05-11T12:55:57.573Z,59.82
2023-05-11T12:58:23.909Z,58.27
2023-05-11T13:00:54.625Z,59.55
2023-05-11T13:03:25.197Z,59.68
2023-05-11T13:05:52.372Z,60.12
2023-05-11T13:08:19.773Z,59.34
2023-05-11T13:10:47.873Z,59.92
2023-05-11T13:13:26.926Z,58.14
2023-05-11T13:15:53.446Z,58.39
2023-05-11T13:18:19.910Z,60.96
2023-05-11T13:20:46.428Z,59.49
2023-05-11T13:23:14.943Z,58.86
2023-05-11T13:25:53.700Z,58.99
2023-05-11T13:28:22.430Z,59.92
2023-05-11T13:30:51.060Z,58.14
2023-05-11T13:33:18.257Z,58.65
2023-05-11T13:35:45.505Z,58.41
2023-05-11T13:38:12.622Z,57.97
2023-05-11T13:40:39.423Z,59.20
2023-05-11T13:43:06.412Z,58.98
2023-05-11T13:45:32.755Z,59.51
2023-05-11T13:47:59.104Z,60.21
2023-05-11T13:50:26.181Z,60.39
2023-05-11T13:52:53.444Z,60.78
2023-05-11T13:55:20.907Z,61.90
2023-05-11T13:57:47.663Z,61.86
2023-05-11T14:00:15.025Z,62.84
2023-05-11T14:02:41.523Z,62.94
2023-05-11T14:05:08.619Z,63.02
2023-05-11T14:07:46.434Z,64.54
2023-05-11T14:10:15.209Z,65.14
2023-05-11T14:12:41.567Z,65.63
2023-05-11T14:15:08.685Z,65.75
2023-05-11T14:17:35.307Z,66.11
2023-05-11T14:20:01.801Z,66.15
2023-05-11T14:22:29.045Z,66.28
2023-05-11T14:24:56.071Z,66.35
2023-05-11T14:27:23.529Z,66.10
2023-05-11T14:29:52.042Z,66.41
2023-05-11T14:32:21.740Z,66.57
2023-05-11T14:34:48.631Z,66.62
2023-05-11T14:37:15.023Z,66.78
2023-05-11T14:39:41.510Z,67.08
2023-05-11T14:42:08.235Z,67.03
2023-05-11T14:44:34.664Z,67.38
2023-05-11T14:47:01.255Z,67.64
2023-05-11T14:49:27.674Z,67.31
2023-05-11T14:51:54.098Z,67.51
2023-05-11T14:54:20.439Z,67.48
2023-05-11T14:56:51.249Z,67.71
2023-05-11T14:59:17.607Z,67.71
2023-05-11T15:01:43.986Z,67.72
2023-05-11T15:04:10.500Z,67.59
2023-05-11T15:06:37.042Z,68.05
2023-05-11T15:09:04.179Z,67.71
2023-05-11T15:11:30.595Z,67.81
2023-05-11T15:13:56.899Z,68.16
2023-05-11T15:16:23.364Z,67.91
2023-05-11T15:18:49.839Z,68.75
2023-05-11T15:21:16.300Z,68.66
2023-05-11T15:23:42.621Z,68.84
2023-05-11T15:26:09.090Z,68.84
2023-05-11T15:28:35.497Z,69.18
2023-05-11T15:31:01.893Z,69.01
2023-05-11T15:33:28.294Z,69.20
2023-05-11T15:35:54.675Z,69.20
2023-05-11T15:38:21.360Z,69.53
2023-05-11T15:40:47.712Z,69.61
2023-05-11T15:43:14.574Z,69.76
2023-05-11T15:45:41.187Z,69.57
2023-05-11T15:48:07.740Z,69.75
2023-05-11T15:50:34.155Z,69.98
2023-05-11T15:53:01.020Z,70.20
2023-05-11T15:55:27.457Z,69.64
2023-05-11T15:57:53.820Z,68.87
2023-05-11T16:00:20.432Z,68.58
2023-05-11T16:02:48.789Z,68.60
2023-05-11T16:05:15.338Z,68.48
2023-05-11T16:07:41.677Z,68.64
2023-05-11T16:10:08.309Z,68.13
2023-05-11T16:12:34.663Z,68.50
2023-05-11T16:15:01.236Z,68.74
2023-05-11T16:17:27.641Z,68.87
2023-05-11T16:19:54.006Z,68.82
2023-05-11T16:22:23.615Z,68.87
2023-05-11T16:24:50.546Z,69.45
2023-05-11T16:27:17.057Z,69.72
2023-05-11T16:29:43.397Z,69.54
2023-05-11T16:32:09.753Z,69.84
2023-05-11T16:34:36.129Z,69.61
2023-05-11T16:37:02.555Z,69.45
2023-05-11T16:39:28.928Z,69.24
2023-05-11T16:41:55.339Z,69.38
2023-05-11T16:44:21.695Z,69.72
2023-05-11T16:46:49.037Z,69.15
2023-05-11T16:49:15.619Z,69.43
2023-05-11T16:51:43.218Z,69.28
2023-05-11T16:54:10.338Z,68.87
2023-05-11T16:56:36.746Z,68.95
2023-05-11T16:59:03.080Z,68.93
2023-05-11T17:01:29.458Z,68.89
2023-05-11T17:03:55.884Z,69.15
2023-05-11T17:06:23.827Z,69.44
2023-05-11T17:08:50.484Z,69.08
2023-05-11T17:11:17.061Z,69.68
2023-05-11T17:13:43.422Z,69.19
2023-05-11T17:16:09.794Z,69.33
2023-05-11T17:18:36.282Z,69.56
2023-05-11T17:21:02.667Z,69.22
2023-05-11T17:23:29.168Z,69.85
2023-05-11T17:25:55.558Z,69.46
2023-05-11T17:28:22.114Z,69.76
2023-05-11T17:30:56.926Z,69.89
2023-05-11T17:33:23.531Z,69.65
2023-05-11T17:35:50.626Z,69.65
2023-05-11T17:38:16.949Z,69.62
2023-05-11T17:40:44.240Z,69.88
2023-05-11T17:43:10.550Z,69.81
2023-05-11T17:45:36.975Z,69.42
2023-05-11T17:48:03.559Z,69.38
2023-05-11T17:50:29.989Z,69.77
2023-05-11T17:52:56.376Z,69.48
2023-05-11T17:55:22.704Z,69.68
2023-05-11T17:57:51.386Z,69.88
2023-05-11T18:00:18.218Z,69.77
2023-05-11T18:02:47.505Z,69.90
2023-05-11T18:05:15.689Z,70.30
2023-05-11T18:07:42.193Z,70.30
2023-05-11T18:10:10.768Z,70.02
2023-05-11T18:12:37.111Z,70.13
2023-05-11T18:15:03.913Z,70.46
2023-05-11T18:17:30.448Z,70.26
2023-05-11T18:19:56.897Z,70.09
2023-05-11T18:22:23.276Z,70.17
2023-05-11T18:24:49.685Z,70.68
2023-05-11T18:27:16.077Z,70.50
2023-05-11T18:29:43.213Z,70.22
2023-05-11T18:32:09.571Z,70.40
2023-05-11T18:34:36.006Z,70.28
2023-05-11T18:37:02.742Z,70.39
2023-05-11T18:39:29.251Z,70.35
2023-05-11T18:41:55.718Z,70.53
2023-05-11T18:44:22.662Z,70.43
2023-05-11T18:46:49.091Z,70.48
2023-05-11T18:49:15.460Z,70.54
2023-05-11T18:51:41.860Z,70.41
2023-05-11T18:54:08.578Z,70.44
2023-05-11T18:56:34.897Z,70.38
2023-05-11T18:59:01.288Z,70.41
2023-05-11T19:01:39.790Z,70.31
2023-05-11T19:04:13.938Z,70.40
2023-05-11T19:06:40.271Z,70.38
2023-05-11T19:09:06.858Z,70.67
2023-05-11T19:11:33.484Z,70.40
2023-05-11T19:14:00.108Z,70.39
2023-05-11T19:16:28.027Z,70.77
2023-05-11T19:18:56.702Z,70.72
2023-05-11T19:21:23.083Z,70.97
2023-05-11T19:23:49.486Z,70.64
2023-05-11T19:26:15.809Z,70.77
2023-05-11T19:28:42.194Z,71.05
2023-05-11T19:31:08.795Z,71.09
2023-05-11T19:33:35.216Z,71.00
2023-05-11T19:36:01.724Z,71.07
2023-05-11T19:38:28.351Z,70.97
2023-05-11T19:40:54.729Z,71.35
2023-05-11T19:43:22.716Z,71.42
2023-05-11T19:45:49.348Z,71.37
2023-05-11T19:48:16.236Z,71.42
2023-05-11T19:50:42.956Z,71.44
2023-05-11T19:53:09.349Z,71.44
2023-05-11T19:55:35.782Z,71.49
2023-05-11T19:58:02.561Z,71.64
2023-05-11T20:00:28.990Z,71.61
2023-05-11T20:02:56.956Z,71.54
2023-05-11T20:05:23.713Z,71.72
2023-05-11T20:07:50.115Z,71.67
2023-05-11T20:10:16.743Z,71.55
2023-05-11T20:12:43.339Z,71.63
2023-05-11T20:15:10.558Z,71.51
2023-05-11T20:17:37.111Z,71.50
2023-05-11T20:20:03.822Z,71.70
2023-05-11T20:22:31.344Z,71.63
2023-05-11T20:24:57.726Z,71.69
2023-05-11T20:27:24.374Z,71.60
2023-05-11T20:29:50.907Z,71.77
2023-05-11T20:32:18.309Z,71.88
2023-05-11T20:34:44.656Z,71.59
2023-05-11T20:37:11.062Z,71.98
2023-05-11T20:39:38.732Z,71.93
2023-05-11T20:42:05.237Z,71.99
2023-05-11T20:44:31.603Z,72.04
2023-05-11T20:46:57.963Z,71.93
2023-05-11T20:49:37.607Z,72.27
2023-05-11T20:52:05.267Z,71.93
2023-05-11T20:54:33.644Z,71.97
2023-05-11T20:57:01.305Z,72.11
2023-05-11T21:01:59.231Z,72.05
2023-05-11T21:04:25.744Z,72.28
2023-05-11T21:06:55.354Z,72.41
2023-05-11T21:09:21.735Z,72.22
2023-05-11T21:11:48.791Z,72.23
2023-05-11T21:14:15.564Z,72.24
2023-05-11T21:16:42.144Z,72.33
2023-05-11T21:19:08.588Z,72.11
2023-05-11T21:21:35.621Z,72.35
2023-05-11T21:24:01.973Z,72.53
2023-05-11T21:26:28.322Z,72.44
2023-05-11T21:28:54.691Z,72.47
2023-05-11T21:31:21.830Z,72.61
2023-05-11T21:33:50.531Z,72.59
2023-05-11T21:36:16.907Z,72.64
2023-05-11T21:38:43.275Z,72.79
2023-05-11T21:41:09.790Z,72.68
2023-05-11T21:43:36.880Z,72.88
2023-05-11T21:46:03.264Z,73.05
2023-05-11T21:48:29.822Z,72.86
2023-05-11T21:50:56.491Z,72.85
2023-05-11T21:53:23.764Z,73.10
2023-05-11T21:55:50.577Z,73.14
2023-05-11T21:58:17.149Z,73.17
2023-05-11T22:00:44.061Z,73.17
2023-05-11T22:03:10.546Z,73.38
2023-05-11T22:05:37.035Z,73.00
2023-05-11T22:08:14.083Z,73.00
2023-05-11T22:10:41.606Z,73.18
2023-05-11T22:13:08.020Z,73.13
2023-05-11T22:15:34.383Z,72.95
2023-05-11T22:18:00.947Z,72.92
2023-05-11T22:20:27.397Z,73.03
2023-05-11T22:22:53.708Z,73.01
2023-05-11T22:25:20.248Z,73.04
2023-05-11T22:27:46.681Z,72.92
2023-05-11T22:30:13.139Z,73.07
2023-05-11T22:32:39.486Z,72.96
2023-05-11T22:35:07.301Z,73.56
2023-05-11T22:37:33.883Z,73.24
2023-05-11T22:40:00.225Z,73.29
2023-05-11T22:42:27.055Z,73.39
2023-05-11T22:44:53.492Z,73.41
2023-05-11T22:47:19.829Z,73.54
2023-05-11T22:49:46.173Z,73.52
2023-05-11T22:52:13.082Z,73.38
2023-05-11T22:54:39.459Z,73.47
2023-05-11T22:57:06.312Z,73.51
2023-05-11T22:59:34.496Z,73.44
2023-05-11T23:02:03.117Z,73.44
2023-05-11T23:04:31.103Z,73.49
2023-05-11T23:06:58.554Z,73.43
2023-05-11T23:09:25.212Z,73.40
2023-05-11T23:11:51.576Z,73.61
2023-05-11T23:14:18.180Z,73.70
2023-05-11T23:16:44.544Z,73.59
2023-05-11T23:19:11.115Z,73.72
2023-05-11T23:21:37.438Z,74.15
2023-05-11T23:24:04.786Z,74.19
2023-05-11T23:26:31.105Z,73.80
2023-05-11T23:28:57.441Z,74.03
2023-05-11T23:31:23.786Z,74.32
2023-05-11T23:33:50.134Z,74.13
2023-05-11T23:36:16.957Z,74.44
2023-05-11T23:38:46.157Z,74.27
2023-05-11T23:41:12.551Z,74.27
2023-05-11T23:43:38.886Z,74.25
2023-05-11T23:46:05.264Z,74.63
2023-05-11T23:48:31.598Z,74.33
2023-05-11T23:50:57.956Z,74.61
2023-05-11T23:53:24.297Z,74.44
2023-05-11T23:55:50.624Z,74.62
2023-05-11T23:58:17.001Z,74.44
